sensor_id;sensor_type;location;lat;lon;timestamp;temperature;humidity
7998;DHT22;4044;49.814;7.828;2023-01-28T00:01:36;4.80;98.20
7998;DHT22;4044;49.814;7.828;2023-01-28T00:04:02;4.80;98.10
7998;DHT22;4044;49.814;7.828;2023-01-28T00:06:28;4.90;98.10
7998;DHT22;4044;49.814;7.828;2023-01-28T00:08:53;4.80;98.10
7998;DHT22;4044;49.814;7.828;2023-01-28T00:11:20;4.80;97.90
7998;DHT22;4044;49.814;7.828;2023-01-28T00:13:50;4.90;97.90
7998;DHT22;4044;49.814;7.828;2023-01-28T00:16:16;4.90;98.00
7998;DHT22;4044;49.814;7.828;2023-01-28T00:18:42;4.90;98.00
7998;DHT22;4044;49.814;7.828;2023-01-28T00:21:11;4.90;97.90
7998;DHT22;4044;49.814;7.828;2023-01-28T00:23:38;4.90;97.70
7998;DHT22;4044;49.814;7.828;2023-01-28T00:26:07;4.90;98.00
7998;DHT22;4044;49.814;7.828;2023-01-28T00:28:34;4.90;97.90
7998;DHT22;4044;49.814;7.828;2023-01-28T00:31:20;5.00;97.60
7998;DHT22;4044;49.814;7.828;2023-01-28T00:33:46;5.00;97.60
7998;DHT22;4044;49.814;7.828;2023-01-28T00:36:14;4.90;97.40
7998;DHT22;4044;49.814;7.828;2023-01-28T00:38:39;4.90;97.60
7998;DHT22;4044;49.814;7.828;2023-01-28T00:41:12;4.70;97.40
7998;DHT22;4044;49.814;7.828;2023-01-28T00:43:38;4.70;97.70
7998;DHT22;4044;49.814;7.828;2023-01-28T00:46:05;4.70;97.70
7998;DHT22;4044;49.814;7.828;2023-01-28T00:48:35;4.80;97.70
7998;DHT22;4044;49.814;7.828;2023-01-28T00:51:01;4.80;97.50
7998;DHT22;4044;49.814;7.828;2023-01-28T00:53:26;4.80;97.80
7998;DHT22;4044;49.814;7.828;2023-01-28T00:55:52;4.90;97.90
7998;DHT22;4044;49.814;7.828;2023-01-28T00:58:18;5.00;97.70
7998;DHT22;4044;49.814;7.828;2023-01-28T01:00:44;5.00;97.90
7998;DHT22;4044;49.814;7.828;2023-01-28T01:03:09;5.00;97.10
7998;DHT22;4044;49.814;7.828;2023-01-28T01:05:35;5.10;97.50
7998;DHT22;4044;49.814;7.828;2023-01-28T01:08:01;5.10;97.70
7998;DHT22;4044;49.814;7.828;2023-01-28T01:10:26;5.10;97.40
7998;DHT22;4044;49.814;7.828;2023-01-28T01:12:52;5.10;97.30
7998;DHT22;4044;49.814;7.828;2023-01-28T01:15:18;5.10;97.40
7998;DHT22;4044;49.814;7.828;2023-01-28T01:17:46;5.00;97.10
7998;DHT22;4044;49.814;7.828;2023-01-28T01:20:19;5.00;97.20
7998;DHT22;4044;49.814;7.828;2023-01-28T01:22:45;5.00;97.30
7998;DHT22;4044;49.814;7.828;2023-01-28T01:25:15;4.90;97.60
7998;DHT22;4044;49.814;7.828;2023-01-28T01:27:41;4.80;97.50
7998;DHT22;4044;49.814;7.828;2023-01-28T01:30:08;4.80;97.50
7998;DHT22;4044;49.814;7.828;2023-01-28T01:32:34;4.70;97.00
7998;DHT22;4044;49.814;7.828;2023-01-28T01:35:01;4.80;97.50
7998;DHT22;4044;49.814;7.828;2023-01-28T01:37:27;4.70;97.70
7998;DHT22;4044;49.814;7.828;2023-01-28T01:39:52;4.80;97.20
7998;DHT22;4044;49.814;7.828;2023-01-28T01:42:18;4.90;97.30
7998;DHT22;4044;49.814;7.828;2023-01-28T01:45:00;4.80;97.40
7998;DHT22;4044;49.814;7.828;2023-01-28T01:52:45;4.70;97.50
7998;DHT22;4044;49.814;7.828;2023-01-28T01:55:16;4.70;97.20
7998;DHT22;4044;49.814;7.828;2023-01-28T01:57:44;4.80;97.30
7998;DHT22;4044;49.814;7.828;2023-01-28T02:00:11;4.80;97.30
7998;DHT22;4044;49.814;7.828;2023-01-28T02:02:43;4.80;97.30
7998;DHT22;4044;49.814;7.828;2023-01-28T02:05:11;4.80;97.40
7998;DHT22;4044;49.814;7.828;2023-01-28T02:07:37;4.80;97.60
7998;DHT22;4044;49.814;7.828;2023-01-28T02:10:05;4.80;97.40
7998;DHT22;4044;49.814;7.828;2023-01-28T02:12:35;4.80;97.50
7998;DHT22;4044;49.814;7.828;2023-01-28T02:15:07;4.70;97.70
7998;DHT22;4044;49.814;7.828;2023-01-28T02:17:33;4.70;97.90
7998;DHT22;4044;49.814;7.828;2023-01-28T02:20:03;4.60;97.70
7998;DHT22;4044;49.814;7.828;2023-01-28T02:22:42;4.60;97.60
7998;DHT22;4044;49.814;7.828;2023-01-28T02:28:22;4.60;98.50
7998;DHT22;4044;49.814;7.828;2023-01-28T02:30:52;4.60;98.20
7998;DHT22;4044;49.814;7.828;2023-01-28T02:33:40;4.60;98.10
7998;DHT22;4044;49.814;7.828;2023-01-28T02:38:49;4.60;97.60
7998;DHT22;4044;49.814;7.828;2023-01-28T02:41:27;4.60;97.60
7998;DHT22;4044;49.814;7.828;2023-01-28T02:43:56;4.70;97.70
7998;DHT22;4044;49.814;7.828;2023-01-28T02:46:33;4.60;97.80
7998;DHT22;4044;49.814;7.828;2023-01-28T02:50:03;4.60;98.00
7998;DHT22;4044;49.814;7.828;2023-01-28T02:52:30;4.60;97.70
7998;DHT22;4044;49.814;7.828;2023-01-28T02:55:38;4.60;97.50
7998;DHT22;4044;49.814;7.828;2023-01-28T02:58:26;4.60;97.40
7998;DHT22;4044;49.814;7.828;2023-01-28T03:01:23;4.50;97.50
7998;DHT22;4044;49.814;7.828;2023-01-28T03:06:24;4.40;97.40
7998;DHT22;4044;49.814;7.828;2023-01-28T03:08:57;4.40;97.40
7998;DHT22;4044;49.814;7.828;2023-01-28T03:11:47;4.30;97.40
7998;DHT22;4044;49.814;7.828;2023-01-28T03:14:33;4.20;97.50
7998;DHT22;4044;49.814;7.828;2023-01-28T03:17:23;4.20;97.40
7998;DHT22;4044;49.814;7.828;2023-01-28T03:20:09;4.10;97.30
7998;DHT22;4044;49.814;7.828;2023-01-28T03:22:56;4.20;97.50
7998;DHT22;4044;49.814;7.828;2023-01-28T03:25:43;4.20;97.40
7998;DHT22;4044;49.814;7.828;2023-01-28T03:28:30;4.00;97.40
7998;DHT22;4044;49.814;7.828;2023-01-28T03:31:17;3.90;97.60
7998;DHT22;4044;49.814;7.828;2023-01-28T03:34:03;4.00;97.70
7998;DHT22;4044;49.814;7.828;2023-01-28T03:36:49;4.00;97.50
7998;DHT22;4044;49.814;7.828;2023-01-28T03:39:16;4.00;97.40
7998;DHT22;4044;49.814;7.828;2023-01-28T03:41:54;4.00;97.50
7998;DHT22;4044;49.814;7.828;2023-01-28T03:44:19;4.00;97.50
7998;DHT22;4044;49.814;7.828;2023-01-28T03:47:04;4.10;97.70
7998;DHT22;4044;49.814;7.828;2023-01-28T03:49:31;4.10;97.70
7998;DHT22;4044;49.814;7.828;2023-01-28T03:51:56;4.20;97.60
7998;DHT22;4044;49.814;7.828;2023-01-28T03:54:22;4.20;97.50
7998;DHT22;4044;49.814;7.828;2023-01-28T03:56:47;4.20;97.00
7998;DHT22;4044;49.814;7.828;2023-01-28T03:59:13;4.30;97.20
7998;DHT22;4044;49.814;7.828;2023-01-28T04:01:39;4.30;97.10
7998;DHT22;4044;49.814;7.828;2023-01-28T04:04:04;4.30;96.90
7998;DHT22;4044;49.814;7.828;2023-01-28T04:06:30;4.20;96.90
7998;DHT22;4044;49.814;7.828;2023-01-28T04:08:56;4.10;96.90
7998;DHT22;4044;49.814;7.828;2023-01-28T04:11:24;4.20;97.20
7998;DHT22;4044;49.814;7.828;2023-01-28T04:13:51;4.30;97.20
7998;DHT22;4044;49.814;7.828;2023-01-28T04:16:17;4.40;96.90
7998;DHT22;4044;49.814;7.828;2023-01-28T04:18:44;4.40;97.20
7998;DHT22;4044;49.814;7.828;2023-01-28T04:21:10;4.40;96.90
7998;DHT22;4044;49.814;7.828;2023-01-28T04:23:36;4.50;97.00
7998;DHT22;4044;49.814;7.828;2023-01-28T04:26:01;4.40;97.00
7998;DHT22;4044;49.814;7.828;2023-01-28T04:28:28;4.30;96.50
7998;DHT22;4044;49.814;7.828;2023-01-28T04:30:54;4.30;96.70
7998;DHT22;4044;49.814;7.828;2023-01-28T04:33:19;4.30;96.80
7998;DHT22;4044;49.814;7.828;2023-01-28T04:35:45;4.30;96.60
7998;DHT22;4044;49.814;7.828;2023-01-28T04:38:10;4.30;96.60
7998;DHT22;4044;49.814;7.828;2023-01-28T04:40:36;4.20;96.20
7998;DHT22;4044;49.814;7.828;2023-01-28T04:43:01;4.20;96.60
7998;DHT22;4044;49.814;7.828;2023-01-28T04:45:27;4.10;96.90
7998;DHT22;4044;49.814;7.828;2023-01-28T04:47:53;4.20;96.50
7998;DHT22;4044;49.814;7.828;2023-01-28T04:50:18;4.10;95.90
7998;DHT22;4044;49.814;7.828;2023-01-28T04:52:44;4.00;95.80
7998;DHT22;4044;49.814;7.828;2023-01-28T04:55:10;4.00;96.20
7998;DHT22;4044;49.814;7.828;2023-01-28T04:57:36;4.10;96.00
7998;DHT22;4044;49.814;7.828;2023-01-28T05:00:03;4.10;96.00
7998;DHT22;4044;49.814;7.828;2023-01-28T05:02:29;4.10;95.70
7998;DHT22;4044;49.814;7.828;2023-01-28T05:04:55;4.10;95.90
7998;DHT22;4044;49.814;7.828;2023-01-28T05:07:21;4.10;95.80
7998;DHT22;4044;49.814;7.828;2023-01-28T05:09:46;4.10;95.90
7998;DHT22;4044;49.814;7.828;2023-01-28T05:12:12;4.10;95.80
7998;DHT22;4044;49.814;7.828;2023-01-28T05:14:37;4.10;95.90
7998;DHT22;4044;49.814;7.828;2023-01-28T05:17:03;4.10;95.80
7998;DHT22;4044;49.814;7.828;2023-01-28T05:19:28;4.00;96.00
7998;DHT22;4044;49.814;7.828;2023-01-28T05:21:54;4.00;96.00
7998;DHT22;4044;49.814;7.828;2023-01-28T05:24:19;4.10;96.00
7998;DHT22;4044;49.814;7.828;2023-01-28T05:26:46;4.10;95.80
7998;DHT22;4044;49.814;7.828;2023-01-28T05:29:11;4.00;95.90
7998;DHT22;4044;49.814;7.828;2023-01-28T05:31:37;4.10;96.30
7998;DHT22;4044;49.814;7.828;2023-01-28T05:34:02;4.10;96.20
7998;DHT22;4044;49.814;7.828;2023-01-28T05:36:27;4.00;95.90
7998;DHT22;4044;49.814;7.828;2023-01-28T05:38:53;4.00;96.40
7998;DHT22;4044;49.814;7.828;2023-01-28T05:41:18;3.90;96.20
7998;DHT22;4044;49.814;7.828;2023-01-28T05:43:44;3.90;96.30
7998;DHT22;4044;49.814;7.828;2023-01-28T05:46:09;4.00;96.30
7998;DHT22;4044;49.814;7.828;2023-01-28T05:48:35;3.90;96.20
7998;DHT22;4044;49.814;7.828;2023-01-28T05:51:00;4.00;96.50
7998;DHT22;4044;49.814;7.828;2023-01-28T05:53:26;4.00;96.30
7998;DHT22;4044;49.814;7.828;2023-01-28T05:55:52;4.00;96.20
7998;DHT22;4044;49.814;7.828;2023-01-28T05:58:19;4.00;96.00
7998;DHT22;4044;49.814;7.828;2023-01-28T06:00:45;4.10;96.10
7998;DHT22;4044;49.814;7.828;2023-01-28T06:03:11;4.00;96.20
7998;DHT22;4044;49.814;7.828;2023-01-28T06:05:36;4.00;96.00
7998;DHT22;4044;49.814;7.828;2023-01-28T06:08:02;3.90;96.30
7998;DHT22;4044;49.814;7.828;2023-01-28T06:10:28;3.80;96.50
7998;DHT22;4044;49.814;7.828;2023-01-28T06:12:54;3.90;96.50
7998;DHT22;4044;49.814;7.828;2023-01-28T06:15:20;3.80;96.40
7998;DHT22;4044;49.814;7.828;2023-01-28T06:17:45;3.70;96.50
7998;DHT22;4044;49.814;7.828;2023-01-28T06:20:11;3.70;96.70
7998;DHT22;4044;49.814;7.828;2023-01-28T06:22:37;3.70;96.80
7998;DHT22;4044;49.814;7.828;2023-01-28T06:25:02;3.70;96.90
7998;DHT22;4044;49.814;7.828;2023-01-28T06:27:28;3.70;96.90
7998;DHT22;4044;49.814;7.828;2023-01-28T06:29:54;3.70;97.00
7998;DHT22;4044;49.814;7.828;2023-01-28T06:32:19;3.70;96.80
7998;DHT22;4044;49.814;7.828;2023-01-28T06:34:45;3.70;97.00
7998;DHT22;4044;49.814;7.828;2023-01-28T06:37:14;3.70;97.00
7998;DHT22;4044;49.814;7.828;2023-01-28T06:39:40;3.70;97.10
7998;DHT22;4044;49.814;7.828;2023-01-28T06:42:06;3.80;97.10
7998;DHT22;4044;49.814;7.828;2023-01-28T06:44:31;3.80;96.90
7998;DHT22;4044;49.814;7.828;2023-01-28T06:46:57;3.70;97.20
7998;DHT22;4044;49.814;7.828;2023-01-28T06:49:22;3.60;96.80
7998;DHT22;4044;49.814;7.828;2023-01-28T06:51:48;3.60;97.20
7998;DHT22;4044;49.814;7.828;2023-01-28T06:54:14;3.50;97.00
7998;DHT22;4044;49.814;7.828;2023-01-28T06:56:39;3.60;96.90
7998;DHT22;4044;49.814;7.828;2023-01-28T06:59:05;3.60;97.00
7998;DHT22;4044;49.814;7.828;2023-01-28T07:01:30;3.60;97.10
7998;DHT22;4044;49.814;7.828;2023-01-28T07:03:56;3.60;97.00
7998;DHT22;4044;49.814;7.828;2023-01-28T07:06:22;3.60;96.90
7998;DHT22;4044;49.814;7.828;2023-01-28T07:08:48;3.50;96.70
7998;DHT22;4044;49.814;7.828;2023-01-28T07:11:14;3.30;96.90
7998;DHT22;4044;49.814;7.828;2023-01-28T07:13:39;3.20;97.50
7998;DHT22;4044;49.814;7.828;2023-01-28T07:16:06;3.20;97.30
7998;DHT22;4044;49.814;7.828;2023-01-28T07:18:31;3.20;97.50
7998;DHT22;4044;49.814;7.828;2023-01-28T07:20:57;3.30;97.20
7998;DHT22;4044;49.814;7.828;2023-01-28T07:23:23;3.30;96.80
7998;DHT22;4044;49.814;7.828;2023-01-28T07:25:48;3.30;96.80
7998;DHT22;4044;49.814;7.828;2023-01-28T07:28:14;3.50;96.90
7998;DHT22;4044;49.814;7.828;2023-01-28T07:30:49;3.50;96.70
7998;DHT22;4044;49.814;7.828;2023-01-28T07:33:15;3.50;96.60
7998;DHT22;4044;49.814;7.828;2023-01-28T07:35:40;3.40;96.10
7998;DHT22;4044;49.814;7.828;2023-01-28T07:38:06;3.50;96.30
7998;DHT22;4044;49.814;7.828;2023-01-28T07:40:31;3.50;96.70
7998;DHT22;4044;49.814;7.828;2023-01-28T07:42:57;3.50;96.60
7998;DHT22;4044;49.814;7.828;2023-01-28T07:45:23;3.50;96.50
7998;DHT22;4044;49.814;7.828;2023-01-28T07:47:56;3.60;96.60
7998;DHT22;4044;49.814;7.828;2023-01-28T07:50:23;3.50;96.60
7998;DHT22;4044;49.814;7.828;2023-01-28T07:52:49;3.60;96.80
7998;DHT22;4044;49.814;7.828;2023-01-28T07:55:15;3.50;96.60
7998;DHT22;4044;49.814;7.828;2023-01-28T07:57:58;3.90;96.70
7998;DHT22;4044;49.814;7.828;2023-01-28T08:00:25;4.10;96.30
7998;DHT22;4044;49.814;7.828;2023-01-28T08:02:59;4.10;96.60
7998;DHT22;4044;49.814;7.828;2023-01-28T08:05:27;4.20;95.90
7998;DHT22;4044;49.814;7.828;2023-01-28T08:07:55;4.30;96.10
7998;DHT22;4044;49.814;7.828;2023-01-28T08:10:21;4.40;96.10
7998;DHT22;4044;49.814;7.828;2023-01-28T08:12:51;4.50;95.60
7998;DHT22;4044;49.814;7.828;2023-01-28T08:15:17;4.40;96.00
7998;DHT22;4044;49.814;7.828;2023-01-28T08:17:42;4.50;95.80
7998;DHT22;4044;49.814;7.828;2023-01-28T08:20:08;4.60;95.60
7998;DHT22;4044;49.814;7.828;2023-01-28T08:22:34;4.70;95.20
7998;DHT22;4044;49.814;7.828;2023-01-28T08:24:59;4.80;95.40
7998;DHT22;4044;49.814;7.828;2023-01-28T08:27:25;4.70;95.20
7998;DHT22;4044;49.814;7.828;2023-01-28T08:29:51;4.60;95.50
7998;DHT22;4044;49.814;7.828;2023-01-28T08:32:16;4.70;95.40
7998;DHT22;4044;49.814;7.828;2023-01-28T08:34:41;4.90;95.50
7998;DHT22;4044;49.814;7.828;2023-01-28T08:37:07;4.90;95.30
7998;DHT22;4044;49.814;7.828;2023-01-28T08:39:32;5.10;95.60
7998;DHT22;4044;49.814;7.828;2023-01-28T08:41:58;5.10;95.20
7998;DHT22;4044;49.814;7.828;2023-01-28T08:44:23;5.20;95.00
7998;DHT22;4044;49.814;7.828;2023-01-28T08:46:49;5.20;94.40
7998;DHT22;4044;49.814;7.828;2023-01-28T08:49:14;5.20;94.90
7998;DHT22;4044;49.814;7.828;2023-01-28T08:51:40;5.20;95.10
7998;DHT22;4044;49.814;7.828;2023-01-28T08:54:05;5.30;95.10
7998;DHT22;4044;49.814;7.828;2023-01-28T08:56:31;5.40;94.20
7998;DHT22;4044;49.814;7.828;2023-01-28T08:58:56;5.40;94.40
7998;DHT22;4044;49.814;7.828;2023-01-28T09:01:22;5.50;94.20
7998;DHT22;4044;49.814;7.828;2023-01-28T09:03:47;5.60;94.40
7998;DHT22;4044;49.814;7.828;2023-01-28T09:06:13;5.60;94.20
7998;DHT22;4044;49.814;7.828;2023-01-28T09:08:39;5.60;93.80
7998;DHT22;4044;49.814;7.828;2023-01-28T09:11:04;5.60;93.70
7998;DHT22;4044;49.814;7.828;2023-01-28T09:13:30;5.60;93.70
7998;DHT22;4044;49.814;7.828;2023-01-28T09:15:55;5.50;93.90
7998;DHT22;4044;49.814;7.828;2023-01-28T09:18:21;5.40;94.00
7998;DHT22;4044;49.814;7.828;2023-01-28T09:20:46;5.50;93.70
7998;DHT22;4044;49.814;7.828;2023-01-28T09:23:13;5.40;93.40
7998;DHT22;4044;49.814;7.828;2023-01-28T09:25:38;5.20;93.70
7998;DHT22;4044;49.814;7.828;2023-01-28T09:28:04;5.30;94.20
7998;DHT22;4044;49.814;7.828;2023-01-28T09:30:30;5.50;93.90
7998;DHT22;4044;49.814;7.828;2023-01-28T09:32:56;5.50;93.70
7998;DHT22;4044;49.814;7.828;2023-01-28T09:35:23;5.60;93.50
7998;DHT22;4044;49.814;7.828;2023-01-28T09:37:49;5.60;94.10
7998;DHT22;4044;49.814;7.828;2023-01-28T09:40:19;5.80;93.80
7998;DHT22;4044;49.814;7.828;2023-01-28T09:45:35;6.00;93.60
7998;DHT22;4044;49.814;7.828;2023-01-28T09:48:03;6.10;93.30
7998;DHT22;4044;49.814;7.828;2023-01-28T09:50:35;6.20;93.40
7998;DHT22;4044;49.814;7.828;2023-01-28T09:53:11;6.20;92.10
7998;DHT22;4044;49.814;7.828;2023-01-28T09:55:40;6.10;92.70
7998;DHT22;4044;49.814;7.828;2023-01-28T09:58:13;5.90;92.60
7998;DHT22;4044;49.814;7.828;2023-01-28T10:03:24;6.00;92.40
7998;DHT22;4044;49.814;7.828;2023-01-28T10:11:42;6.30;93.00
7998;DHT22;4044;49.814;7.828;2023-01-28T10:16:51;6.30;92.40
7998;DHT22;4044;49.814;7.828;2023-01-28T10:19:25;6.30;92.10
7998;DHT22;4044;49.814;7.828;2023-01-28T10:21:56;6.60;93.00
7998;DHT22;4044;49.814;7.828;2023-01-28T10:24:33;6.80;92.50
7998;DHT22;4044;49.814;7.828;2023-01-28T10:27:14;6.90;92.00
7998;DHT22;4044;49.814;7.828;2023-01-28T10:29:40;6.80;91.60
7998;DHT22;4044;49.814;7.828;2023-01-28T10:32:29;6.60;91.60
7998;DHT22;4044;49.814;7.828;2023-01-28T10:34:55;6.40;91.10
7998;DHT22;4044;49.814;7.828;2023-01-28T10:37:24;6.30;91.20
7998;DHT22;4044;49.814;7.828;2023-01-28T10:39:55;6.30;91.20
7998;DHT22;4044;49.814;7.828;2023-01-28T10:44:58;6.60;91.80
7998;DHT22;4044;49.814;7.828;2023-01-28T10:47:40;6.70;91.80
7998;DHT22;4044;49.814;7.828;2023-01-28T10:50:25;6.50;90.60
7998;DHT22;4044;49.814;7.828;2023-01-28T10:52:55;6.60;90.80
7998;DHT22;4044;49.814;7.828;2023-01-28T10:55:21;6.50;91.50
7998;DHT22;4044;49.814;7.828;2023-01-28T10:57:47;6.70;91.40
7998;DHT22;4044;49.814;7.828;2023-01-28T11:02:47;6.70;91.70
7998;DHT22;4044;49.814;7.828;2023-01-28T11:05:21;6.50;91.00
7998;DHT22;4044;49.814;7.828;2023-01-28T11:07:50;6.50;91.70
7998;DHT22;4044;49.814;7.828;2023-01-28T11:10:36;6.50;90.90
7998;DHT22;4044;49.814;7.828;2023-01-28T11:13:12;6.40;90.90
7998;DHT22;4044;49.814;7.828;2023-01-28T11:18:32;6.70;90.90
7998;DHT22;4044;49.814;7.828;2023-01-28T11:21:02;6.90;91.20
7998;DHT22;4044;49.814;7.828;2023-01-28T11:23:33;6.70;89.70
7998;DHT22;4044;49.814;7.828;2023-01-28T11:28:29;6.70;90.60
7998;DHT22;4044;49.814;7.828;2023-01-28T11:30:57;6.80;90.90
7998;DHT22;4044;49.814;7.828;2023-01-28T11:33:47;6.90;90.40
7998;DHT22;4044;49.814;7.828;2023-01-28T11:36:19;6.70;90.40
7998;DHT22;4044;49.814;7.828;2023-01-28T11:38:54;6.90;90.60
7998;DHT22;4044;49.814;7.828;2023-01-28T11:41:30;6.80;90.00
7998;DHT22;4044;49.814;7.828;2023-01-28T11:43:57;6.60;89.20
7998;DHT22;4044;49.814;7.828;2023-01-28T11:46:50;6.20;88.70
7998;DHT22;4044;49.814;7.828;2023-01-28T11:52:16;6.20;90.80
7998;DHT22;4044;49.814;7.828;2023-01-28T11:57:38;6.40;90.80
7998;DHT22;4044;49.814;7.828;2023-01-28T12:00:34;6.40;90.10
7998;DHT22;4044;49.814;7.828;2023-01-28T12:03:05;6.40;90.30
7998;DHT22;4044;49.814;7.828;2023-01-28T12:08:27;6.40;89.60
7998;DHT22;4044;49.814;7.828;2023-01-28T12:13:33;5.70;91.00
7998;DHT22;4044;49.814;7.828;2023-01-28T12:17:05;5.80;91.30
7998;DHT22;4044;49.814;7.828;2023-01-28T12:19:35;5.90;91.20
7998;DHT22;4044;49.814;7.828;2023-01-28T12:27:46;5.70;91.20
7998;DHT22;4044;49.814;7.828;2023-01-28T12:41:37;5.60;91.30
7998;DHT22;4044;49.814;7.828;2023-01-28T12:44:13;5.30;90.90
7998;DHT22;4044;49.814;7.828;2023-01-28T12:46:48;5.30;91.00
7998;DHT22;4044;49.814;7.828;2023-01-28T12:49:33;5.20;90.80
7998;DHT22;4044;49.814;7.828;2023-01-28T12:52:26;5.20;91.10
7998;DHT22;4044;49.814;7.828;2023-01-28T12:55:03;5.10;90.90
7998;DHT22;4044;49.814;7.828;2023-01-28T12:57:31;5.10;91.00
7998;DHT22;4044;49.814;7.828;2023-01-28T13:02:51;5.00;91.20
7998;DHT22;4044;49.814;7.828;2023-01-28T13:05:21;4.80;91.30
7998;DHT22;4044;49.814;7.828;2023-01-28T13:08:05;4.90;91.20
7998;DHT22;4044;49.814;7.828;2023-01-28T13:10:40;4.80;91.20
7998;DHT22;4044;49.814;7.828;2023-01-28T13:13:08;4.80;91.00
7998;DHT22;4044;49.814;7.828;2023-01-28T13:15:39;4.90;91.60
7998;DHT22;4044;49.814;7.828;2023-01-28T13:18:06;4.80;91.30
7998;DHT22;4044;49.814;7.828;2023-01-28T13:20:45;4.80;91.20
7998;DHT22;4044;49.814;7.828;2023-01-28T13:25:49;4.80;91.60
7998;DHT22;4044;49.814;7.828;2023-01-28T13:28:26;4.60;91.30
7998;DHT22;4044;49.814;7.828;2023-01-28T13:31:01;4.60;91.30
7998;DHT22;4044;49.814;7.828;2023-01-28T13:33:34;4.60;91.80
7998;DHT22;4044;49.814;7.828;2023-01-28T13:36:44;4.50;91.70
7998;DHT22;4044;49.814;7.828;2023-01-28T13:41:49;4.50;91.20
7998;DHT22;4044;49.814;7.828;2023-01-28T13:46:43;4.40;91.30
7998;DHT22;4044;49.814;7.828;2023-01-28T13:49:14;4.50;91.20
7998;DHT22;4044;49.814;7.828;2023-01-28T13:51:55;4.60;91.50
7998;DHT22;4044;49.814;7.828;2023-01-28T13:54:23;4.80;91.30
7998;DHT22;4044;49.814;7.828;2023-01-28T13:57:02;4.80;91.10
7998;DHT22;4044;49.814;7.828;2023-01-28T13:59:52;4.60;91.50
7998;DHT22;4044;49.814;7.828;2023-01-28T14:08:14;4.40;91.50
7998;DHT22;4044;49.814;7.828;2023-01-28T14:13:48;4.30;90.90
7998;DHT22;4044;49.814;7.828;2023-01-28T14:18:58;4.60;91.40
7998;DHT22;4044;49.814;7.828;2023-01-28T14:21:26;4.60;91.10
7998;DHT22;4044;49.814;7.828;2023-01-28T14:23:54;4.70;90.90
7998;DHT22;4044;49.814;7.828;2023-01-28T14:27:21;4.60;91.10
7998;DHT22;4044;49.814;7.828;2023-01-28T14:29:24;4.40;91.00
7998;DHT22;4044;49.814;7.828;2023-01-28T14:31:53;4.20;91.00
7998;DHT22;4044;49.814;7.828;2023-01-28T14:36:48;4.20;90.80
7998;DHT22;4044;49.814;7.828;2023-01-28T14:39:19;4.10;91.10
7998;DHT22;4044;49.814;7.828;2023-01-28T14:41:48;4.30;91.10
7998;DHT22;4044;49.814;7.828;2023-01-28T14:44:30;4.40;91.30
7998;DHT22;4044;49.814;7.828;2023-01-28T14:50:04;4.40;90.50
7998;DHT22;4044;49.814;7.828;2023-01-28T14:52:54;4.50;90.40
7998;DHT22;4044;49.814;7.828;2023-01-28T14:58:24;4.30;90.20
7998;DHT22;4044;49.814;7.828;2023-01-28T15:00:54;4.30;88.40
7998;DHT22;4044;49.814;7.828;2023-01-28T15:03:20;4.40;88.90
7998;DHT22;4044;49.814;7.828;2023-01-28T15:05:46;4.50;90.10
7998;DHT22;4044;49.814;7.828;2023-01-28T15:08:22;4.70;90.10
7998;DHT22;4044;49.814;7.828;2023-01-28T15:10:50;4.70;89.80
7998;DHT22;4044;49.814;7.828;2023-01-28T15:13:31;4.80;89.50
7998;DHT22;4044;49.814;7.828;2023-01-28T15:15:59;4.80;89.20
7998;DHT22;4044;49.814;7.828;2023-01-28T15:18:41;4.80;89.10
7998;DHT22;4044;49.814;7.828;2023-01-28T15:21:08;4.90;88.70
7998;DHT22;4044;49.814;7.828;2023-01-28T15:23:39;4.90;88.90
7998;DHT22;4044;49.814;7.828;2023-01-28T15:26:07;4.90;89.00
7998;DHT22;4044;49.814;7.828;2023-01-28T15:28:36;4.90;88.70
7998;DHT22;4044;49.814;7.828;2023-01-28T15:31:03;5.00;88.50
7998;DHT22;4044;49.814;7.828;2023-01-28T15:33:29;4.90;88.10
7998;DHT22;4044;49.814;7.828;2023-01-28T15:35:56;4.70;87.60
7998;DHT22;4044;49.814;7.828;2023-01-28T15:38:23;4.70;88.30
7998;DHT22;4044;49.814;7.828;2023-01-28T15:41:10;4.70;88.00
7998;DHT22;4044;49.814;7.828;2023-01-28T15:43:37;4.70;87.10
7998;DHT22;4044;49.814;7.828;2023-01-28T15:46:03;4.60;87.80
7998;DHT22;4044;49.814;7.828;2023-01-28T15:48:34;4.60;87.50
7998;DHT22;4044;49.814;7.828;2023-01-28T15:51:03;4.60;88.20
7998;DHT22;4044;49.814;7.828;2023-01-28T15:53:35;4.60;87.70
7998;DHT22;4044;49.814;7.828;2023-01-28T15:56:10;4.60;87.70
7998;DHT22;4044;49.814;7.828;2023-01-28T15:58:36;4.60;87.80
7998;DHT22;4044;49.814;7.828;2023-01-28T16:03:39;4.60;87.90
7998;DHT22;4044;49.814;7.828;2023-01-28T16:06:13;4.60;87.70
7998;DHT22;4044;49.814;7.828;2023-01-28T16:08:55;4.50;87.80
7998;DHT22;4044;49.814;7.828;2023-01-28T16:11:31;4.40;87.70
7998;DHT22;4044;49.814;7.828;2023-01-28T16:13:59;4.30;87.70
7998;DHT22;4044;49.814;7.828;2023-01-28T16:16:31;4.30;88.10
7998;DHT22;4044;49.814;7.828;2023-01-28T16:18:57;4.20;87.60
7998;DHT22;4044;49.814;7.828;2023-01-28T16:21:29;4.20;87.60
7998;DHT22;4044;49.814;7.828;2023-01-28T16:24:02;4.10;87.50
7998;DHT22;4044;49.814;7.828;2023-01-28T16:26:30;4.10;87.90
7998;DHT22;4044;49.814;7.828;2023-01-28T16:28:55;4.00;87.50
7998;DHT22;4044;49.814;7.828;2023-01-28T16:31:21;4.10;87.80
7998;DHT22;4044;49.814;7.828;2023-01-28T16:33:47;4.00;88.30
7998;DHT22;4044;49.814;7.828;2023-01-28T16:36:15;4.00;87.30
7998;DHT22;4044;49.814;7.828;2023-01-28T16:38:42;3.90;87.60
7998;DHT22;4044;49.814;7.828;2023-01-28T16:41:40;3.90;88.20
7998;DHT22;4044;49.814;7.828;2023-01-28T16:44:11;3.90;88.00
7998;DHT22;4044;49.814;7.828;2023-01-28T16:46:37;4.00;88.40
7998;DHT22;4044;49.814;7.828;2023-01-28T16:49:02;4.00;88.10
7998;DHT22;4044;49.814;7.828;2023-01-28T16:51:29;4.00;87.90
7998;DHT22;4044;49.814;7.828;2023-01-28T16:53:54;3.90;88.30
7998;DHT22;4044;49.814;7.828;2023-01-28T16:56:22;3.90;87.90
7998;DHT22;4044;49.814;7.828;2023-01-28T16:58:48;3.80;88.00
7998;DHT22;4044;49.814;7.828;2023-01-28T17:01:14;3.80;88.50
7998;DHT22;4044;49.814;7.828;2023-01-28T17:03:39;3.80;88.40
7998;DHT22;4044;49.814;7.828;2023-01-28T17:06:05;3.80;88.60
7998;DHT22;4044;49.814;7.828;2023-01-28T17:08:31;3.80;88.60
7998;DHT22;4044;49.814;7.828;2023-01-28T17:10:57;3.70;88.30
7998;DHT22;4044;49.814;7.828;2023-01-28T17:13:23;3.70;88.70
7998;DHT22;4044;49.814;7.828;2023-01-28T17:15:49;3.70;88.90
7998;DHT22;4044;49.814;7.828;2023-01-28T17:18:15;3.80;88.90
7998;DHT22;4044;49.814;7.828;2023-01-28T17:20:40;3.80;88.60
7998;DHT22;4044;49.814;7.828;2023-01-28T17:23:07;3.70;88.40
7998;DHT22;4044;49.814;7.828;2023-01-28T17:25:40;3.70;88.50
7998;DHT22;4044;49.814;7.828;2023-01-28T17:28:06;3.60;88.70
7998;DHT22;4044;49.814;7.828;2023-01-28T17:30:33;3.50;89.30
7998;DHT22;4044;49.814;7.828;2023-01-28T17:32:59;3.40;89.00
7998;DHT22;4044;49.814;7.828;2023-01-28T17:35:24;3.30;89.30
7998;DHT22;4044;49.814;7.828;2023-01-28T17:37:54;3.20;89.50
7998;DHT22;4044;49.814;7.828;2023-01-28T17:40:20;3.20;89.30
7998;DHT22;4044;49.814;7.828;2023-01-28T17:42:46;3.10;89.60
7998;DHT22;4044;49.814;7.828;2023-01-28T17:45:11;3.10;89.60
7998;DHT22;4044;49.814;7.828;2023-01-28T17:47:37;3.10;89.70
7998;DHT22;4044;49.814;7.828;2023-01-28T17:50:03;3.20;90.00
7998;DHT22;4044;49.814;7.828;2023-01-28T17:52:29;3.00;90.40
7998;DHT22;4044;49.814;7.828;2023-01-28T17:54:55;2.90;90.30
7998;DHT22;4044;49.814;7.828;2023-01-28T17:57:20;2.80;90.30
7998;DHT22;4044;49.814;7.828;2023-01-28T17:59:46;2.80;90.20
7998;DHT22;4044;49.814;7.828;2023-01-28T18:02:12;2.80;90.30
7998;DHT22;4044;49.814;7.828;2023-01-28T18:04:39;2.80;90.50
7998;DHT22;4044;49.814;7.828;2023-01-28T18:07:06;2.80;90.50
7998;DHT22;4044;49.814;7.828;2023-01-28T18:09:39;2.80;90.50
7998;DHT22;4044;49.814;7.828;2023-01-28T18:12:07;2.90;90.50
7998;DHT22;4044;49.814;7.828;2023-01-28T18:14:33;2.90;90.50